Time;durP1;ratioP1;P1;durP2;ratioP2;P2;SDS_P1;SDS_P2;PMS_P1;PMS_P2;Temp;Humidity;BMP_temperature;BMP_pressure;BME280_temperature;BME280_humidity;BME280_pressure;Samples;Min_cycle;Max_cycle;Signal;HPM_P1;HPM_P2
2023/08/21 00:01:01;;;;;;;;;;;23.60;66.40;;;22.92;71.37;96458.66;4971519;28;20301;-64
2023/08/21 00:03:27;;;;;;;;;;;23.50;66.60;;;22.94;71.50;96451.16;4969584;28;19914;-65
2023/08/21 00:05:53;;;;;;;;;;;23.60;66.60;;;22.92;71.49;96453.28;4959606;28;19914;-65
2023/08/21 00:08:18;;;;;;;;;;;23.60;66.70;;;22.91;71.12;96446.31;4969842;28;19925;-64
2023/08/21 00:10:44;;;;;;;;;;;23.60;66.40;;;22.88;71.58;96446.81;4970102;28;20412;-64
2023/08/21 00:13:09;;;;;;;;;;;23.50;66.00;;;22.84;71.32;96451.06;4971144;28;19917;-65
2023/08/21 00:15:37;;;;;;;;;;;23.40;66.20;;;22.76;71.13;96443.47;4951460;28;20274;-64
2023/08/21 00:18:03;;;;;;;;;;;23.30;66.20;;;22.65;71.71;96449.84;4952727;28;19921;-64
2023/08/21 00:20:29;;;;;;;;;;;23.20;66.50;;;22.58;72.05;96442.81;4968456;28;20293;-64
2023/08/21 00:22:54;;;;;;;;;;;23.20;66.80;;;22.57;72.80;96445.75;4941088;28;20387;-64
2023/08/21 00:25:21;;;;;;;;;;;23.10;67.20;;;22.53;73.09;96448.13;4971369;28;19980;-64
2023/08/21 00:27:47;;;;;;;;;;;23.10;67.30;;;22.50;72.85;96445.97;4971087;28;19918;-64
2023/08/21 00:30:14;;;;;;;;;;;23.10;67.60;;;22.48;73.11;96448.09;4973574;28;19913;-65
2023/08/21 00:32:41;;;;;;;;;;;23.10;67.70;;;22.46;73.19;96444.06;4969047;28;19928;-64
2023/08/21 00:35:06;;;;;;;;;;;23.00;67.80;;;22.42;73.46;96442.97;4969671;28;19957;-65
2023/08/21 00:37:32;;;;;;;;;;;22.90;68.10;;;22.37;74.09;96451.75;4956426;28;20397;-65
2023/08/21 00:39:58;;;;;;;;;;;22.90;68.50;;;22.25;74.02;96441.19;4972441;28;19961;-64
2023/08/21 00:42:23;;;;;;;;;;;22.80;68.50;;;22.16;74.81;96445.38;4974334;28;19929;-64
2023/08/21 00:44:49;;;;;;;;;;;22.80;68.70;;;22.15;75.30;96445.63;4951989;28;19920;-65
2023/08/21 00:47:15;;;;;;;;;;;22.70;69.00;;;22.16;75.77;96445.38;4977229;28;19914;-66
2023/08/21 00:49:40;;;;;;;;;;;22.80;69.10;;;22.13;75.12;96440.53;4952967;28;21411;-66
2023/08/21 00:52:10;;;;;;;;;;;22.80;68.90;;;22.13;75.21;96442.41;4947920;28;20326;-65
2023/08/21 00:54:36;;;;;;;;;;;22.70;68.80;;;22.08;75.43;96439.69;4935681;28;19925;-65
2023/08/21 00:57:02;;;;;;;;;;;22.70;68.80;;;22.01;75.28;96438.00;4960599;28;20188;-65
2023/08/21 00:59:28;;;;;;;;;;;22.70;68.80;;;21.96;75.06;96442.50;4969485;28;20400;-64
2023/08/21 01:01:54;;;;;;;;;;;22.60;69.00;;;21.93;75.78;96445.66;4952543;28;19910;-65
2023/08/21 01:04:19;;;;;;;;;;;22.60;69.20;;;21.92;76.70;96438.69;4952672;28;19937;-65
2023/08/21 01:06:45;;;;;;;;;;;22.60;69.40;;;21.92;76.68;96438.69;4949971;28;19922;-66
2023/08/21 01:09:44;;;;;;;;;;;22.60;69.30;;;21.90;76.69;96436.25;4973566;28;19925;-65
2023/08/21 01:12:57;;;;;;;;;;;22.60;69.30;;;21.84;77.08;96448.00;4962183;28;19914;-66
2023/08/21 01:15:23;;;;;;;;;;;22.50;69.80;;;21.80;76.57;96441.53;4944870;29;19915;-65
2023/08/21 01:17:49;;;;;;;;;;;22.50;69.70;;;21.80;77.25;96444.19;4944527;28;19914;-65
2023/08/21 01:20:14;;;;;;;;;;;22.60;69.70;;;21.79;76.36;96442.59;4931197;28;19910;-63
2023/08/21 01:22:40;;;;;;;;;;;22.60;69.70;;;21.80;77.14;96441.53;4968434;28;19914;-63
2023/08/21 01:25:07;;;;;;;;;;;22.60;69.60;;;21.76;77.12;96440.41;4951966;28;19918;-65
2023/08/21 01:27:33;;;;;;;;;;;22.50;69.80;;;21.74;78.31;96437.19;4951826;28;19918;-64
2023/08/21 01:29:59;;;;;;;;;;;22.50;69.80;;;21.72;78.00;96444.63;4966079;28;20001;-64
2023/08/21 01:32:35;;;;;;;;;;;22.50;70.00;;;21.72;77.89;96447.31;4967609;28;19924;-64
2023/08/21 01:35:00;;;;;;;;;;;22.50;70.10;;;21.68;78.29;96448.88;4951628;28;19914;-64
2023/08/21 01:37:26;;;;;;;;;;;22.40;70.30;;;21.66;78.42;96446.44;4935956;28;19924;-64
2023/08/21 01:39:52;;;;;;;;;;;22.40;70.40;;;21.64;78.52;96450.44;4951569;28;20417;-64
2023/08/21 01:42:17;;;;;;;;;;;22.30;70.40;;;21.58;79.23;96443.41;4967997;28;19917;-64
2023/08/21 01:44:45;;;;;;;;;;;22.30;70.70;;;21.54;79.96;96447.66;4951405;28;19917;-64
2023/08/21 01:47:12;;;;;;;;;;;22.20;71.00;;;21.50;79.49;96446.50;4968032;28;19918;-65
2023/08/21 01:49:37;;;;;;;;;;;22.20;71.70;;;21.46;81.31;96453.41;4951440;28;19914;-64
2023/08/21 01:52:03;;;;;;;;;;;22.10;72.30;;;21.40;82.51;96458.72;4968897;28;19921;-64
2023/08/21 01:54:29;;;;;;;;;;;22.10;73.00;;;21.36;82.66;96454.91;4951088;28;19910;-63
2023/08/21 01:56:54;;;;;;;;;;;22.10;73.30;;;21.30;83.49;96447.09;4950712;28;19962;-64
2023/08/21 01:59:21;;;;;;;;;;;22.10;73.50;;;21.24;83.80;96445.38;4950357;28;19910;-64
2023/08/21 02:01:47;;;;;;;;;;;22.00;73.80;;;21.23;84.15;96449.09;4966849;28;19936;-64
2023/08/21 02:04:12;;;;;;;;;;;22.00;74.00;;;21.20;84.20;96441.56;4966889;28;19920;-64
2023/08/21 02:06:38;;;;;;;;;;;21.90;74.00;;;21.16;84.76;96446.59;4965616;28;19918;-64
2023/08/21 02:09:04;;;;;;;;;;;21.90;74.30;;;21.10;85.60;96453.75;4935073;28;19921;-64
2023/08/21 02:11:29;;;;;;;;;;;21.80;74.40;;;21.06;84.84;96441.94;4967067;28;19940;-64
2023/08/21 02:13:55;;;;;;;;;;;21.70;74.50;;;21.03;85.33;96444.25;4949378;28;19921;-64
2023/08/21 02:16:21;;;;;;;;;;;21.70;74.40;;;21.01;85.25;96446.38;4969552;28;19965;-64
2023/08/21 02:18:47;;;;;;;;;;;21.70;74.40;;;20.97;85.80;96446.06;4952999;28;19941;-64
2023/08/21 02:21:13;;;;;;;;;;;21.70;74.50;;;20.94;85.72;96443.06;4935011;28;19914;-64
2023/08/21 02:23:39;;;;;;;;;;;21.70;74.30;;;20.91;85.56;96446.25;4967920;28;20428;-63
2023/08/21 02:26:07;;;;;;;;;;;21.60;74.40;;;20.85;85.32;96444.56;4949613;28;19918;-63
2023/08/21 02:28:32;;;;;;;;;;;21.60;74.70;;;20.80;86.15;96454.09;4960957;28;20008;-63
2023/08/21 02:30:58;;;;;;;;;;;21.60;74.80;;;20.78;86.23;96442.84;4967095;28;20358;-65
2023/08/21 02:33:24;;;;;;;;;;;21.60;74.70;;;20.76;86.39;96442.28;4941355;28;19918;-64
2023/08/21 02:35:49;;;;;;;;;;;21.60;74.80;;;20.74;86.57;96444.38;4934308;28;19922;-64
2023/08/21 02:38:15;;;;;;;;;;;21.50;74.90;;;20.72;86.59;96451.03;4965735;28;20334;-64
2023/08/21 02:40:41;;;;;;;;;;;21.60;74.80;;;20.71;86.58;96454.78;4937446;28;19989;-64
2023/08/21 02:43:06;;;;;;;;;;;21.50;74.90;;;20.68;86.62;96445.38;4967695;28;19914;-64
2023/08/21 02:45:32;;;;;;;;;;;21.50;75.40;;;20.67;87.14;96446.44;4946804;28;19918;-65
2023/08/21 02:47:58;;;;;;;;;;;21.40;75.50;;;20.66;89.30;96452.03;4947524;28;20282;-65
2023/08/21 02:50:23;;;;;;;;;;;21.40;75.50;;;20.64;87.75;96459.47;4948086;28;19914;-67
2023/08/21 02:52:49;;;;;;;;;;;21.40;75.40;;;20.61;87.81;96463.44;4961509;28;19910;-66
2023/08/21 02:55:15;;;;;;;;;;;21.30;75.50;;;20.58;88.21;96461.25;4969695;28;19910;-63
2023/08/21 02:57:41;;;;;;;;;;;21.30;75.40;;;20.58;87.16;96471.13;4949739;28;19914;-64
2023/08/21 03:00:08;;;;;;;;;;;21.30;75.40;;;20.54;87.42;96461.97;4947558;28;19937;-64
2023/08/21 03:02:34;;;;;;;;;;;21.30;75.40;;;20.51;87.58;96465.13;4936209;28;19918;-64
2023/08/21 03:05:00;;;;;;;;;;;21.20;75.60;;;20.47;88.79;96464.81;4952567;28;19914;-64
2023/08/21 03:07:25;;;;;;;;;;;21.20;75.70;;;20.44;88.75;96471.47;4934912;28;19937;-64
2023/08/21 03:09:51;;;;;;;;;;;21.10;76.00;;;20.39;88.96;96470.53;4963840;28;19921;-64
2023/08/21 03:12:17;;;;;;;;;;;21.10;76.00;;;20.32;89.23;96477.88;4945742;28;19918;-64
2023/08/21 03:14:42;;;;;;;;;;;21.10;76.30;;;20.30;90.21;96471.97;4960650;28;20350;-64
2023/08/21 03:17:08;;;;;;;;;;;21.10;76.40;;;20.29;90.57;96478.38;4930796;28;19917;-64
2023/08/21 03:19:35;;;;;;;;;;;21.10;76.20;;;20.25;91.18;96477.22;4928139;28;19922;-64
2023/08/21 03:22:00;;;;;;;;;;;21.10;76.30;;;20.21;91.23;96476.91;4965122;28;20257;-64
2023/08/21 03:24:26;;;;;;;;;;;21.10;76.30;;;20.18;90.78;96478.19;4943568;28;19988;-66
2023/08/21 03:26:52;;;;;;;;;;;21.10;76.30;;;20.14;90.97;96471.72;4966004;28;19918;-64
2023/08/21 03:29:17;;;;;;;;;;;21.00;76.30;;;20.13;90.91;96475.41;4967312;28;20323;-64
2023/08/21 03:31:43;;;;;;;;;;;21.00;76.40;;;20.12;90.25;96467.63;4964734;28;19914;-64
2023/08/21 03:34:09;;;;;;;;;;;21.00;76.50;;;20.11;91.17;96472.16;4965911;28;20374;-64
2023/08/21 03:36:36;;;;;;;;;;;20.90;76.60;;;20.08;91.07;96469.97;4938172;28;19918;-63
2023/08/21 03:39:03;;;;;;;;;;;20.80;76.70;;;20.04;91.15;96466.19;4949670;28;20006;-64
2023/08/21 03:41:29;;;;;;;;;;;20.80;76.80;;;20.04;91.06;96476.84;4967230;28;20404;-64
2023/08/21 03:43:55;;;;;;;;;;;20.80;76.80;;;20.02;91.03;96473.63;4945622;28;19914;-64
2023/08/21 03:46:20;;;;;;;;;;;20.80;76.80;;;19.99;91.27;96468.75;4966493;28;20515;-63
2023/08/21 03:48:46;;;;;;;;;;;20.80;76.80;;;19.98;91.25;96466.34;4953465;28;19925;-66
2023/08/21 03:51:12;;;;;;;;;;;20.70;76.90;;;19.91;91.75;96474.47;4953221;28;19914;-65
2023/08/21 03:53:37;;;;;;;;;;;20.70;77.10;;;19.86;93.11;96479.72;4969475;28;20285;-65
2023/08/21 03:56:03;;;;;;;;;;;20.70;77.20;;;19.86;92.77;96479.72;4950927;28;19933;-69
2023/08/21 03:58:29;;;;;;;;;;;20.70;77.20;;;19.86;92.58;96474.38;4967941;28;19910;-65
2023/08/21 04:00:54;;;;;;;;;;;20.70;77.00;;;19.85;92.24;96473.56;4967564;28;20372;-65
2023/08/21 04:03:20;;;;;;;;;;;20.70;76.80;;;19.85;91.43;96483.44;4937274;28;19917;-65
2023/08/21 04:05:46;;;;;;;;;;;20.70;76.70;;;19.85;92.66;96478.09;4939579;28;19928;-66
2023/08/21 04:08:12;;;;;;;;;;;20.70;76.60;;;19.83;92.65;96480.19;4953494;28;19918;-65
2023/08/21 04:10:38;;;;;;;;;;;20.70;76.80;;;19.83;92.50;96477.53;4970882;28;19909;-65
2023/08/21 04:13:04;;;;;;;;;;;20.70;76.90;;;19.82;92.16;96481.25;4953210;28;20351;-65
2023/08/21 04:15:30;;;;;;;;;;;20.70;76.70;;;19.81;91.85;96471.63;4940108;28;19985;-65
2023/08/21 04:17:55;;;;;;;;;;;20.60;76.50;;;19.81;91.68;96476.97;4954569;28;19933;-65
2023/08/21 04:20:21;;;;;;;;;;;20.70;76.60;;;19.81;92.43;96477.75;4956171;28;19932;-65
2023/08/21 04:22:47;;;;;;;;;;;20.70;76.60;;;19.80;91.88;96478.00;4969025;28;19981;-64
2023/08/21 04:25:13;;;;;;;;;;;20.70;76.60;;;19.79;92.74;96479.06;4970611;28;19945;-64
2023/08/21 04:27:39;;;;;;;;;;;20.70;76.50;;;19.77;92.49;96481.16;4955552;28;19914;-64
2023/08/21 04:30:05;;;;;;;;;;;20.70;76.40;;;19.76;91.94;96482.19;4954301;28;19936;-65
2023/08/21 04:32:31;;;;;;;;;;;20.70;76.30;;;19.76;92.71;96487.53;4953937;28;20308;-64
2023/08/21 04:34:56;;;;;;;;;;;20.70;76.40;;;19.76;93.48;96482.19;4955468;28;19910;-65
2023/08/21 04:37:23;;;;;;;;;;;20.70;76.50;;;19.74;94.22;96485.09;4953649;28;19920;-65
2023/08/21 04:39:52;;;;;;;;;;;20.70;76.80;;;19.76;94.38;96484.88;4959736;28;19914;-64
2023/08/21 04:42:18;;;;;;;;;;;20.70;76.80;;;19.75;94.23;96492.06;4970252;28;19921;-64
2023/08/21 04:44:43;;;;;;;;;;;20.70;76.80;;;19.77;95.00;96491.84;4955753;28;19982;-64
2023/08/21 04:47:27;;;;;;;;;;;20.70;76.90;;;19.78;94.48;96490.78;4954096;28;19920;-64
2023/08/21 04:49:53;;;;;;;;;;;20.70;76.80;;;19.79;94.76;96484.41;4954292;28;19910;-65
2023/08/21 04:52:20;;;;;;;;;;;20.80;76.70;;;19.82;93.89;96479.38;4937892;28;20452;-65
2023/08/21 04:54:46;;;;;;;;;;;20.90;76.70;;;19.85;93.98;96491.44;4936030;28;20346;-65
2023/08/21 04:57:12;;;;;;;;;;;20.90;76.60;;;19.84;94.14;96492.50;4970022;28;19910;-65
2023/08/21 04:59:40;;;;;;;;;;;20.90;76.60;;;19.85;94.50;96494.94;4955030;28;19910;-64
2023/08/21 05:02:05;;;;;;;;;;;21.00;76.50;;;19.87;93.87;96486.69;4974271;28;19914;-65
2023/08/21 05:04:31;;;;;;;;;;;20.90;76.60;;;19.89;93.96;96495.25;4957600;28;19910;-65
2023/08/21 05:06:57;;;;;;;;;;;21.00;76.70;;;19.93;94.41;96496.44;4957424;28;19925;-65
2023/08/21 05:09:22;;;;;;;;;;;21.00;76.60;;;19.96;94.74;96495.94;4973898;28;19909;-65
2023/08/21 05:11:48;;;;;;;;;;;21.10;76.60;;;20.00;94.88;96501.63;4967988;28;20000;-65
2023/08/21 05:14:14;;;;;;;;;;;21.10;76.60;;;20.02;95.28;96500.31;4968264;28;19941;-64
2023/08/21 05:16:39;;;;;;;;;;;21.10;76.70;;;20.04;95.29;96502.75;4953699;28;19921;-65
2023/08/21 05:19:05;;;;;;;;;;;21.20;76.60;;;20.07;95.23;96503.09;4968201;28;20286;-65
2023/08/21 05:21:31;;;;;;;;;;;21.20;76.50;;;20.07;94.13;96508.44;4969561;28;19910;-65
2023/08/21 05:23:56;;;;;;;;;;;21.20;76.40;;;20.10;95.30;96507.94;4952997;28;20392;-66
2023/08/21 05:26:22;;;;;;;;;;;21.10;76.70;;;20.13;94.56;96502.13;4952208;28;19921;-65
2023/08/21 05:28:48;;;;;;;;;;;21.20;76.70;;;20.18;95.33;96512.91;4969330;28;20501;-65
2023/08/21 05:31:13;;;;;;;;;;;21.30;76.50;;;20.22;95.89;96507.09;4967870;28;19916;-65
2023/08/21 05:33:39;;;;;;;;;;;21.40;76.60;;;20.27;95.40;96504.50;4952925;28;19960;-66
2023/08/21 05:36:05;;;;;;;;;;;21.40;76.70;;;20.30;95.81;96509.38;4951866;28;20289;-65
2023/08/21 05:38:31;;;;;;;;;;;21.50;76.50;;;20.37;96.23;96504.72;4954393;28;19922;-65
2023/08/21 05:40:58;;;;;;;;;;;21.60;76.40;;;20.42;95.87;96504.81;4968973;28;19910;-65
2023/08/21 05:43:24;;;;;;;;;;;21.70;76.20;;;20.49;95.60;96502.78;4967535;28;19961;-66
2023/08/21 05:45:49;;;;;;;;;;;21.80;76.10;;;20.54;95.94;96510.88;4951468;28;19961;-65
2023/08/21 05:48:16;;;;;;;;;;;21.80;76.10;;;20.60;95.41;96517.97;4954094;28;19910;-65
2023/08/21 05:50:42;;;;;;;;;;;21.80;75.90;;;20.66;95.97;96511.66;4938365;28;19910;-65
2023/08/21 05:53:08;;;;;;;;;;;21.90;75.80;;;20.74;94.94;96519.25;4983888;28;19953;-65
2023/08/21 05:55:33;;;;;;;;;;;22.10;75.50;;;20.85;94.80;96524.78;4967242;28;19910;-65
2023/08/21 05:57:59;;;;;;;;;;;22.20;75.00;;;20.94;94.54;96523.31;4955510;28;19918;-66
2023/08/21 06:00:25;;;;;;;;;;;22.30;74.80;;;21.03;94.27;96521.81;4968852;28;19910;-65
2023/08/21 06:02:50;;;;;;;;;;;22.50;74.40;;;21.10;93.84;96514.47;4968469;28;19914;-65
2023/08/21 06:05:16;;;;;;;;;;;22.60;74.20;;;21.20;93.67;96517.28;4969538;28;19914;-66
2023/08/21 06:07:42;;;;;;;;;;;22.70;73.90;;;21.28;92.72;96524.94;4952506;28;20420;-65
2023/08/21 06:10:12;;;;;;;;;;;22.70;73.40;;;21.34;92.71;96518.59;4967989;28;19910;-66
2023/08/21 06:12:39;;;;;;;;;;;22.80;73.20;;;21.45;92.88;96513.38;4969440;28;19956;-65
2023/08/21 06:15:07;;;;;;;;;;;23.00;73.00;;;21.53;93.30;96518.31;4954111;28;19910;-65
2023/08/21 06:17:33;;;;;;;;;;;23.10;72.90;;;21.63;92.29;96521.09;4969745;28;19968;-65
2023/08/21 06:19:59;;;;;;;;;;;23.20;72.30;;;21.71;91.57;96524.16;4958877;28;20332;-65
2023/08/21 06:22:25;;;;;;;;;;;23.30;72.10;;;21.82;91.45;96527.78;4935195;28;19988;-65
2023/08/21 06:24:50;;;;;;;;;;;23.50;71.90;;;21.92;90.61;96527.06;4967306;28;19986;-65
2023/08/21 06:27:16;;;;;;;;;;;23.50;71.60;;;22.01;90.89;96529.06;4969687;28;20382;-66
2023/08/21 06:29:42;;;;;;;;;;;23.70;71.20;;;22.08;90.19;96528.09;4952431;28;19923;-65
2023/08/21 06:32:07;;;;;;;;;;;23.60;71.00;;;22.17;90.26;96526.56;4950759;28;19914;-65
2023/08/21 06:34:35;;;;;;;;;;;23.80;70.60;;;22.29;89.97;96524.56;4955149;28;19914;-65
2023/08/21 06:37:01;;;;;;;;;;;24.00;70.30;;;22.37;88.32;96526.78;4967257;28;19910;-65
2023/08/21 06:39:27;;;;;;;;;;;24.00;70.00;;;22.49;88.08;96523.97;4953846;28;19941;-66
2023/08/21 06:41:53;;;;;;;;;;;24.10;69.60;;;22.62;88.54;96523.53;4970801;28;19909;-66
2023/08/21 06:44:18;;;;;;;;;;;24.30;69.50;;;22.74;89.58;96524.19;4950756;28;19945;-66
2023/08/21 06:46:44;;;;;;;;;;;24.50;69.60;;;22.88;87.29;96520.06;4951770;28;19925;-66
2023/08/21 06:49:10;;;;;;;;;;;24.60;68.80;;;23.03;87.55;96529.28;4951916;28;20013;-65
2023/08/21 06:51:35;;;;;;;;;;;24.80;68.50;;;23.16;87.46;96526.97;4968103;28;19958;-66
2023/08/21 06:54:01;;;;;;;;;;;24.90;68.70;;;23.30;85.93;96521.13;4953145;28;20354;-65
2023/08/21 06:56:27;;;;;;;;;;;25.00;67.80;;;23.43;85.98;96528.75;4929554;28;20390;-66
2023/08/21 06:58:54;;;;;;;;;;;25.10;67.60;;;23.55;84.66;96532.03;4958753;28;19910;-66
2023/08/21 07:01:21;;;;;;;;;;;25.20;67.10;;;23.64;84.01;96525.13;4954995;28;19910;-66
2023/08/21 07:03:46;;;;;;;;;;;25.30;66.70;;;23.71;82.98;96525.69;4951584;28;19914;-66
2023/08/21 07:06:12;;;;;;;;;;;25.40;66.40;;;23.77;82.73;96529.22;4937220;28;19914;-65
2023/08/21 07:08:40;;;;;;;;;;;25.40;66.40;;;23.85;81.98;96525.22;4951936;28;19910;-66
2023/08/21 07:11:07;;;;;;;;;;;25.50;65.90;;;23.94;82.00;96523.63;4970417;28;19956;-65
2023/08/21 07:13:33;;;;;;;;;;;25.60;65.60;;;24.03;82.75;96525.56;4964903;28;20375;-65
2023/08/21 07:16:02;;;;;;;;;;;25.70;65.80;;;24.14;83.46;96523.69;4950695;28;19910;-66
2023/08/21 07:18:27;;;;;;;;;;;25.90;66.00;;;24.26;82.20;96526.97;4953817;28;20263;-66
2023/08/21 07:20:53;;;;;;;;;;;26.00;65.20;;;24.34;81.48;96529.16;4962600;28;19920;-65
2023/08/21 07:23:19;;;;;;;;;;;26.10;65.00;;;24.46;82.47;96531.63;4955363;28;19910;-65
2023/08/21 07:25:45;;;;;;;;;;;26.20;65.00;;;24.58;81.98;96528.66;4942270;28;19922;-66
2023/08/21 07:28:10;;;;;;;;;;;26.40;64.90;;;24.71;82.24;96528.16;4985572;28;19910;-65
2023/08/21 07:30:38;;;;;;;;;;;26.50;64.80;;;24.87;81.16;96527.06;4956698;28;19925;-66
2023/08/21 07:33:04;;;;;;;;;;;26.80;63.90;;;25.06;80.61;96534.63;4944784;28;19954;-66
2023/08/21 07:35:30;;;;;;;;;;;27.00;63.10;;;25.26;78.98;96518.44;4955191;28;20004;-66
2023/08/21 07:37:56;;;;;;;;;;;27.40;61.60;;;25.47;75.84;96514.63;4953703;28;20269;-67
2023/08/21 07:40:21;;;;;;;;;;;27.60;59.60;;;25.68;75.02;96518.13;4954903;28;20285;-68
2023/08/21 07:42:47;;;;;;;;;;;27.80;58.80;;;25.87;74.17;96518.31;4973440;28;19960;-66
2023/08/21 07:45:13;;;;;;;;;;;28.00;58.20;;;26.07;74.44;96520.94;4971162;28;19910;-66
2023/08/21 07:47:38;;;;;;;;;;;28.30;58.40;;;26.27;74.51;96528.09;4968402;28;20338;-65
2023/08/21 07:50:06;;;;;;;;;;;28.50;58.30;;;26.52;74.29;96524.47;4972309;28;19964;-65
2023/08/21 07:52:31;;;;;;;;;;;28.80;57.70;;;26.77;74.01;96515.38;4970591;28;20012;-66
2023/08/21 07:54:59;;;;;;;;;;;29.20;57.40;;;27.02;72.38;96517.09;4956376;28;19910;-66
2023/08/21 07:57:24;;;;;;;;;;;29.40;56.10;;;27.22;70.41;96514.22;4969402;28;19925;-65
2023/08/21 07:59:50;;;;;;;;;;;29.60;54.80;;;27.46;69.58;96508.84;4953835;28;19910;-66
2023/08/21 08:02:16;;;;;;;;;;;29.90;54.20;;;27.67;67.74;96496.75;4970990;28;20010;-67
2023/08/21 08:04:43;;;;;;;;;;;30.10;52.60;;;27.93;66.87;96499.94;4971054;28;19910;-66
2023/08/21 08:07:09;;;;;;;;;;;30.50;52.00;;;28.17;67.23;96504.50;4955035;28;19918;-67
2023/08/21 08:09:34;;;;;;;;;;;30.60;51.80;;;28.38;67.28;96511.28;4956198;28;20390;-66
2023/08/21 08:12:00;;;;;;;;;;;30.90;51.80;;;28.58;66.66;96510.97;4969724;28;19917;-67
2023/08/21 08:14:25;;;;;;;;;;;31.10;51.40;;;28.73;64.89;96496.38;4970959;28;20393;-66
2023/08/21 08:16:51;;;;;;;;;;;31.00;50.10;;;28.88;64.50;96498.88;4955000;28;19913;-67
2023/08/21 08:19:17;;;;;;;;;;;31.30;49.80;;;29.06;63.87;96499.94;4953227;28;19914;-66
2023/08/21 08:21:43;;;;;;;;;;;31.50;49.30;;;29.20;61.59;96495.38;4971048;28;19932;-67
2023/08/21 08:24:09;;;;;;;;;;;31.60;47.80;;;29.38;61.40;96501.00;4954648;28;19910;-66
2023/08/21 08:26:34;;;;;;;;;;;31.70;47.50;;;29.60;60.75;96490.31;4972282;28;19961;-65
2023/08/21 08:29:00;;;;;;;;;;;32.20;46.70;;;29.83;59.76;96492.00;4953319;28;19914;-66
2023/08/21 08:31:27;;;;;;;;;;;32.50;45.90;;;30.07;59.63;96491.00;4970745;28;19910;-66
2023/08/21 08:33:54;;;;;;;;;;;32.70;45.60;;;30.27;59.07;96489.75;4967703;28;19918;-65
2023/08/21 08:36:20;;;;;;;;;;;33.00;44.80;;;30.52;59.02;96496.53;4969307;28;20281;-65
2023/08/21 08:38:45;;;;;;;;;;;33.10;44.70;;;30.72;56.80;96482.50;4972146;28;20052;-64
2023/08/21 08:41:14;;;;;;;;;;;33.40;42.90;;;30.92;55.81;96487.44;4969163;28;20333;-65
2023/08/21 08:43:40;;;;;;;;;;;33.60;42.10;;;31.13;55.77;96490.44;4938721;28;19910;-64
2023/08/21 08:46:06;;;;;;;;;;;34.00;42.50;;;31.42;58.20;96502.75;4953274;28;20296;-65
2023/08/21 08:48:32;;;;;;;;;;;34.40;43.70;;;31.65;57.20;96499.66;4954275;28;19910;-64
2023/08/21 08:50:58;;;;;;;;;;;34.60;43.70;;;31.87;55.07;96481.69;4953175;28;19984;-65
2023/08/21 08:53:23;;;;;;;;;;;34.70;41.40;;;32.08;52.12;96465.56;4951940;28;19910;-65
2023/08/21 08:55:49;;;;;;;;;;;35.00;39.00;;;32.32;52.03;96470.59;4953562;28;20440;-65
2023/08/21 08:58:15;;;;;;;;;;;35.30;39.20;;;32.57;52.28;96469.78;4959193;28;19910;-64
2023/08/21 09:00:40;;;;;;;;;;;35.60;38.90;;;32.71;50.72;96456.81;4970092;28;20384;-64
2023/08/21 09:03:06;;;;;;;;;;;35.50;38.30;;;32.96;50.50;96454.38;4968794;28;19914;-65
2023/08/21 09:05:33;;;;;;;;;;;36.00;38.00;;;33.21;50.42;96464.41;4970022;28;20274;-65
2023/08/21 09:08:17;;;;;;;;;;;36.40;37.90;;;33.48;51.42;96468.69;4971215;28;20004;-65
2023/08/21 09:10:45;;;;;;;;;;;36.60;38.50;;;33.72;49.89;96462.63;4969608;28;20006;-65
2023/08/21 09:13:20;;;;;;;;;;;36.90;37.20;;;33.92;48.95;96451.00;4960220;28;19948;-65
2023/08/21 09:15:49;;;;;;;;;;;37.00;36.30;;;34.13;49.68;96456.47;4954296;28;19937;-65
2023/08/21 09:18:15;;;;;;;;;;;37.50;37.00;;;34.40;49.09;96444.25;4954233;28;20001;-65
2023/08/21 09:20:41;;;;;;;;;;;37.80;36.20;;;34.61;48.12;96449.69;4969894;28;19909;-65
2023/08/21 09:23:07;;;;;;;;;;;38.00;35.60;;;34.80;47.95;96450.00;4956372;28;19957;-64
2023/08/21 09:25:39;;;;;;;;;;;38.00;35.20;;;34.93;45.89;96443.47;4953771;28;19929;-64
2023/08/21 09:28:06;;;;;;;;;;;38.10;34.20;;;35.09;45.40;96443.63;4971143;28;19961;-64
2023/08/21 09:30:46;;;;;;;;;;;38.30;33.50;;;35.24;44.30;96423.81;4968375;28;19957;-67
2023/08/21 09:33:12;;;;;;;;;;;38.60;33.40;;;35.41;45.94;96443.94;4961383;28;19958;-65
2023/08/21 09:35:39;;;;;;;;;;;38.90;33.70;;;35.66;45.07;96445.53;4967937;28;19932;-65
2023/08/21 09:38:06;;;;;;;;;;;39.30;33.00;;;35.94;45.83;96445.66;4952480;28;20449;-65
2023/08/21 09:40:32;;;;;;;;;;;39.70;33.80;;;36.22;44.48;96439.47;4969131;28;19981;-64
2023/08/21 09:42:58;;;;;;;;;;;40.00;32.60;;;36.44;43.32;96420.59;4970280;28;20386;-65
2023/08/21 09:45:26;;;;;;;;;;;40.30;30.90;;;36.70;43.18;96416.59;4968131;28;19985;-65
2023/08/21 09:47:52;;;;;;;;;;;40.50;31.30;;;37.00;42.02;96417.03;4944754;28;19918;-64
2023/08/21 09:50:18;;;;;;;;;;;40.80;30.60;;;37.18;40.87;96403.78;4952051;28;19960;-65
2023/08/21 09:52:44;;;;;;;;;;;41.00;29.90;;;37.46;40.69;96401.75;4968852;28;19914;-65
2023/08/21 09:55:10;;;;;;;;;;;41.40;29.50;;;37.68;40.08;96392.88;4937590;28;19918;-65
2023/08/21 09:57:36;;;;;;;;;;;41.50;29.30;;;37.90;39.88;96396.94;4966278;28;20373;-64
2023/08/21 10:00:14;;;;;;;;;;;41.80;28.60;;;38.15;40.12;96396.69;4953171;28;20054;-64
2023/08/21 10:02:39;;;;;;;;;;;42.40;28.80;;;38.36;39.03;96385.38;4968849;28;20399;-65
2023/08/21 10:05:05;;;;;;;;;;;42.60;28.00;;;38.56;39.11;96392.44;4951691;28;19914;-65
2023/08/21 10:07:31;;;;;;;;;;;43.00;28.10;;;38.77;38.00;96378.34;4954174;28;20304;-65
2023/08/21 10:09:56;;;;;;;;;;;43.00;27.30;;;38.90;36.98;96371.50;4955749;28;19920;-65
2023/08/21 10:12:22;;;;;;;;;;;43.40;26.20;;;39.02;36.94;96367.78;4952755;28;19925;-64
2023/08/21 10:14:47;;;;;;;;;;;43.70;26.00;;;39.16;36.00;96357.06;4969069;28;19909;-64
2023/08/21 10:17:13;;;;;;;;;;;44.00;25.00;;;39.36;37.13;96366.78;4953118;28;19910;-64
2023/08/21 10:19:39;;;;;;;;;;;44.50;25.80;;;39.59;36.22;96360.47;4954008;28;19910;-64
2023/08/21 10:22:05;;;;;;;;;;;44.70;25.10;;;39.86;35.91;96355.78;4976451;28;20400;-64
2023/08/21 10:24:36;;;;;;;;;;;45.10;24.90;;;40.09;34.94;96348.25;4968764;28;19976;-65
2023/08/21 10:27:02;;;;;;;;;;;45.50;24.30;;;40.22;35.42;96354.28;4970007;28;19914;-64
2023/08/21 10:29:28;;;;;;;;;;;45.80;24.10;;;40.50;35.81;96360.16;4936930;28;19910;-64
2023/08/21 10:32:02;;;;;;;;;;;46.20;24.40;;;40.80;35.21;96359.31;4967026;28;20003;-64
2023/08/21 10:34:37;;;;;;;;;;;46.50;24.30;;;41.01;33.51;96337.47;4969967;28;19997;-63
2023/08/21 10:37:05;;;;;;;;;;;46.90;23.20;;;41.25;32.82;96330.59;4968933;28;19922;-65
2023/08/21 10:39:33;;;;;;;;;;;47.10;22.10;;;41.46;33.33;96346.53;4968771;28;19941;-64
2023/08/21 10:42:05;;;;;;;;;;;47.60;22.50;;;41.70;32.44;96328.56;4952317;28;20402;-64
2023/08/21 10:44:34;;;;;;;;;;;47.80;22.40;;;42.04;33.23;96342.94;4974496;28;20374;-64
2023/08/21 10:47:14;;;;;;;;;;;48.30;21.90;;;42.39;32.07;96332.03;4969832;28;19918;-64
2023/08/21 10:49:40;;;;;;;;;;;48.60;21.60;;;42.67;32.45;96336.09;4969657;28;20361;-64
2023/08/21 10:52:07;;;;;;;;;;;48.70;22.10;;;42.82;31.82;96332.16;4981206;28;19910;-64
2023/08/21 10:54:47;;;;;;;;;;;48.70;21.40;;;42.89;31.74;96332.19;4956241;28;19964;-64
2023/08/21 10:57:12;;;;;;;;;;;48.50;21.40;;;42.89;32.26;96343.28;4974008;28;19917;-63
2023/08/21 10:59:38;;;;;;;;;;;48.90;22.10;;;42.93;32.62;96344.06;4973112;28;19910;-63
2023/08/21 11:02:04;;;;;;;;;;;49.00;22.30;;;43.04;31.95;96336.56;4955731;28;19950;-64
2023/08/21 11:04:39;;;;;;;;;;;49.20;21.90;;;43.24;31.13;96325.09;4973422;28;20001;-64
2023/08/21 11:07:05;;;;;;;;;;;49.40;21.20;;;43.51;31.13;96329.06;4973455;28;19914;-64
2023/08/21 11:09:30;;;;;;;;;;;49.50;20.80;;;43.63;30.09;96331.38;4954870;28;19917;-64
2023/08/21 11:11:56;;;;;;;;;;;49.90;20.80;;;43.78;30.52;96326.63;4969236;28;19910;-64
2023/08/21 11:14:25;;;;;;;;;;;49.90;20.50;;;43.83;31.05;96333.75;4972600;28;20377;-64